Time;durP1;ratioP1;P1;durP2;ratioP2;P2;SDS_P1;SDS_P2;PMS_P1;PMS_P2;Temp;Humidity;BMP_temperature;BMP_pressure;BME280_temperature;BME280_humidity;BME280_pressure;Samples;Min_cycle;Max_cycle;Signal;HPM_P1;HPM_P2
2022/04/12 00:00:40;;;;;;;6.23;4.20;;;8.60;90.50;;;;;;5018700;28;20198;-82
2022/04/12 00:03:06;;;;;;;7.60;4.70;;;8.60;90.20;;;;;;5018837;28;20188;-84
2022/04/12 00:05:37;;;;;;;11.60;4.57;;;8.70;90.10;;;;;;5018555;28;20221;-83
2022/04/12 00:08:04;;;;;;;7.43;4.77;;;8.70;90.50;;;;;;5018636;28;20170;-83
2022/04/12 00:10:31;;;;;;;7.03;4.33;;;8.60;90.90;;;;;;5024492;28;20222;-82
2022/04/12 00:12:58;;;;;;;7.40;4.50;;;8.60;90.50;;;;;;5019830;28;20181;-82
2022/04/12 00:15:24;;;;;;;7.13;4.50;;;8.70;90.10;;;;;;5017972;28;20170;-82
2022/04/12 00:20:35;;;;;;;8.10;4.07;;;8.60;91.30;;;;;;5036365;28;20281;-81
2022/04/12 00:23:01;;;;;;;11.40;4.37;;;8.70;90.30;;;;;;5018136;28;20178;-80
2022/04/12 00:25:28;;;;;;;7.83;4.60;;;8.70;90.90;;;;;;5017842;28;20610;-82
2022/04/12 00:27:55;;;;;;;6.63;4.60;;;8.70;90.80;;;;;;5018102;28;20186;-82
2022/04/12 00:30:22;;;;;;;6.50;4.50;;;8.60;90.70;;;;;;5017748;28;20264;-82
2022/04/12 00:32:50;;;;;;;6.50;4.40;;;8.60;91.00;;;;;;5017971;28;20178;-82
2022/04/12 00:35:17;;;;;;;7.40;4.70;;;8.60;90.80;;;;;;5017799;28;20209;-82
2022/04/12 00:37:42;;;;;;;7.43;4.40;;;8.50;90.90;;;;;;5017941;28;20224;-82
2022/04/12 00:40:09;;;;;;;6.37;4.20;;;8.50;91.40;;;;;;5017681;28;20670;-81
2022/04/12 00:42:35;;;;;;;8.30;4.50;;;8.50;91.20;;;;;;5017832;28;20182;-82
2022/04/12 00:45:01;;;;;;;7.43;4.37;;;8.50;91.40;;;;;;5016994;28;20247;-82
2022/04/12 00:47:26;;;;;;;5.67;4.27;;;8.50;91.10;;;;;;5020640;22;20223;-86
2022/04/12 00:49:52;;;;;;;8.23;4.37;;;8.50;91.00;;;;;;4997289;28;20205;-86
2022/04/12 00:52:18;;;;;;;8.53;4.07;;;8.40;91.30;;;;;;4996505;28;20658;-86
2022/04/12 00:54:44;;;;;;;11.37;4.80;;;8.30;91.50;;;;;;5011825;28;20175;-87
2022/04/12 00:57:11;;;;;;;9.37;4.40;;;8.30;91.40;;;;;;4997042;28;20717;-86
2022/04/12 00:59:37;;;;;;;7.07;4.80;;;8.40;91.00;;;;;;5014839;28;20199;-86
2022/04/12 01:02:06;;;;;;;8.17;4.10;;;8.40;91.40;;;;;;5043195;23;20236;-80
2022/04/12 01:04:33;;;;;;;7.93;4.33;;;8.20;91.50;;;;;;5058264;28;20184;-79
2022/04/12 01:07:00;;;;;;;8.47;4.80;;;8.20;91.60;;;;;;5058440;28;20173;-81
2022/04/12 01:09:26;;;;;;;9.27;4.77;;;8.20;91.80;;;;;;5041153;28;20205;-80
2022/04/12 01:11:56;;;;;;;9.17;4.90;;;8.10;92.30;;;;;;5040815;28;20219;-80
2022/04/12 01:14:24;;;;;;;9.87;4.77;;;8.10;92.50;;;;;;5040758;28;20359;-80
2022/04/12 01:16:51;;;;;;;6.90;4.67;;;8.10;92.40;;;;;;5058764;28;20169;-80
2022/04/12 01:19:17;;;;;;;6.20;4.10;;;8.00;92.50;;;;;;5058793;28;20181;-81
2022/04/12 01:21:52;;;;;;;6.90;4.57;;;8.10;92.40;;;;;;5050804;28;20190;-79
2022/04/12 01:24:18;;;;;;;7.57;4.47;;;8.20;91.90;;;;;;5066374;28;20247;-80
2022/04/12 01:26:44;;;;;;;8.37;3.97;;;8.10;92.20;;;;;;5068811;28;20188;-80
2022/04/12 01:29:10;;;;;;;6.53;4.10;;;8.00;92.20;;;;;;5051257;28;20197;-80
2022/04/12 01:31:35;;;;;;;7.97;4.73;;;8.00;92.50;;;;;;5067376;28;20194;-80
2022/04/12 01:34:01;;;;;;;7.17;4.50;;;8.00;92.30;;;;;;5068169;28;20201;-79
2022/04/12 01:36:26;;;;;;;9.93;4.60;;;7.90;93.00;;;;;;5041433;28;20213;-80
2022/04/12 01:38:52;;;;;;;5.23;3.63;;;7.90;92.70;;;;;;5056513;28;20213;-80
2022/04/12 01:41:18;;;;;;;10.63;4.47;;;7.80;93.10;;;;;;5055469;28;20231;-81
2022/04/12 01:43:43;;;;;;;10.00;4.37;;;7.80;92.70;;;;;;5055049;28;20180;-80
2022/04/12 01:46:09;;;;;;;15.70;4.63;;;7.90;92.50;;;;;;5036933;28;20177;-80
2022/04/12 01:48:35;;;;;;;7.27;3.93;;;7.90;93.00;;;;;;5054649;28;20177;-80
2022/04/12 01:51:00;;;;;;;7.83;4.47;;;8.00;92.90;;;;;;5036152;28;20211;-80
2022/04/12 01:53:27;;;;;;;9.93;4.10;;;8.00;93.00;;;;;;5033767;28;20591;-79
2022/04/12 01:55:52;;;;;;;8.03;4.50;;;7.80;93.20;;;;;;5053431;28;20253;-80
2022/04/12 01:58:18;;;;;;;5.20;3.80;;;7.70;93.40;;;;;;5036376;28;20197;-80
2022/04/12 02:00:44;;;;;;;9.03;4.33;;;7.80;93.00;;;;;;5054018;28;20644;-80
2022/04/12 02:03:10;;;;;;;10.00;4.30;;;7.80;93.00;;;;;;5052945;28;20649;-80
2022/04/12 02:05:35;;;;;;;7.27;4.07;;;7.80;93.30;;;;;;5035898;28;20293;-80
2022/04/12 02:08:02;;;;;;;9.73;4.83;;;7.80;93.00;;;;;;5053586;28;20196;-80
2022/04/12 02:10:28;;;;;;;9.37;4.30;;;7.80;93.40;;;;;;5053658;28;20204;-80
2022/04/12 02:12:53;;;;;;;7.63;4.33;;;7.70;93.70;;;;;;5052799;28;20203;-80
2022/04/12 02:15:19;;;;;;;9.53;4.50;;;7.70;93.60;;;;;;5035178;28;20174;-81
2022/04/12 02:17:44;;;;;;;5.27;3.90;;;7.60;94.00;;;;;;5035320;28;20173;-81
2022/04/12 02:20:10;;;;;;;6.73;4.30;;;7.60;94.20;;;;;;5035709;28;20284;-81
2022/04/12 02:22:37;;;;;;;16.63;4.13;;;7.50;94.40;;;;;;5052673;28;20190;-80
2022/04/12 02:25:04;;;;;;;7.50;4.23;;;7.50;94.60;;;;;;5033022;28;20184;-81
2022/04/12 02:27:29;;;;;;;7.43;4.20;;;7.50;94.30;;;;;;5053566;28;20180;-81
2022/04/12 02:29:55;;;;;;;7.57;4.57;;;7.40;94.80;;;;;;5053199;28;20656;-81
2022/04/12 02:32:21;;;;;;;9.17;4.40;;;7.50;94.40;;;;;;5052573;28;20216;-81
2022/04/12 02:34:46;;;;;;;10.47;4.30;;;7.40;94.40;;;;;;5052805;28;20277;-80
2022/04/12 02:37:12;;;;;;;5.53;4.23;;;7.40;94.80;;;;;;5053109;28;20221;-80
2022/04/12 02:39:37;;;;;;;7.83;4.53;;;7.40;94.80;;;;;;5035335;28;20179;-80
2022/04/12 02:42:03;;;;;;;10.03;4.77;;;7.40;94.90;;;;;;5052394;28;20204;-80
2022/04/12 02:44:28;;;;;;;7.43;4.30;;;7.40;94.70;;;;;;5053057;28;20173;-80
2022/04/12 02:46:54;;;;;;;6.47;4.30;;;7.40;94.60;;;;;;5053065;28;20169;-81
2022/04/12 02:49:20;;;;;;;8.10;4.50;;;7.30;94.90;;;;;;5034884;28;20200;-81
2022/04/12 02:51:46;;;;;;;7.60;4.63;;;7.30;94.90;;;;;;5052416;28;20599;-81
2022/04/12 02:54:12;;;;;;;6.63;4.20;;;7.20;95.70;;;;;;5050311;28;20173;-80
2022/04/12 02:56:38;;;;;;;9.77;4.63;;;7.20;95.60;;;;;;5052638;28;20180;-80
2022/04/12 02:59:04;;;;;;;8.73;4.50;;;7.20;95.70;;;;;;5034502;28;20169;-81
2022/04/12 03:01:30;;;;;;;10.57;4.30;;;7.20;95.50;;;;;;5052013;28;20202;-80
2022/04/12 03:03:55;;;;;;;9.10;4.93;;;7.30;95.40;;;;;;5034634;28;20225;-80
2022/04/12 03:06:21;;;;;;;6.50;4.13;;;7.20;95.90;;;;;;5052852;28;20181;-80
2022/04/12 03:08:46;;;;;;;7.13;4.30;;;7.20;96.00;;;;;;5055869;28;20214;-81
2022/04/12 03:11:12;;;;;;;7.13;4.53;;;7.20;95.80;;;;;;5038031;28;20291;-80
2022/04/12 03:13:37;;;;;;;9.80;4.53;;;7.20;96.10;;;;;;5056745;28;20636;-81
2022/04/12 03:16:03;;;;;;;10.63;5.00;;;7.20;96.00;;;;;;5038547;28;20665;-80
2022/04/12 03:18:29;;;;;;;7.37;4.50;;;7.20;96.00;;;;;;5056675;28;20202;-80
2022/04/12 03:20:54;;;;;;;10.43;4.87;;;7.10;96.10;;;;;;5038866;28;20246;-80
2022/04/12 03:23:20;;;;;;;9.57;4.37;;;7.20;96.10;;;;;;5055662;28;20541;-80
2022/04/12 03:25:45;;;;;;;8.03;4.60;;;7.10;96.50;;;;;;5054250;28;20173;-78
2022/04/12 03:28:11;;;;;;;12.27;4.70;;;7.10;96.30;;;;;;5038421;28;20184;-81
2022/04/12 03:30:37;;;;;;;9.03;5.10;;;7.20;96.20;;;;;;5056384;28;20688;-80
2022/04/12 03:33:02;;;;;;;9.93;4.93;;;7.10;96.60;;;;;;5055427;28;20199;-81
2022/04/12 03:35:28;;;;;;;9.53;4.90;;;7.10;96.50;;;;;;5056502;28;20183;-80
2022/04/12 03:37:59;;;;;;;11.43;5.60;;;7.00;96.70;;;;;;5056784;28;20700;-81
2022/04/12 03:40:27;;;;;;;8.77;4.80;;;7.00;96.60;;;;;;5056900;28;20174;-80
2022/04/12 03:42:53;;;;;;;12.10;4.77;;;7.10;96.40;;;;;;5037024;28;20208;-80
2022/04/12 03:45:18;;;;;;;11.13;4.93;;;7.10;97.10;;;;;;5055735;28;20177;-80
2022/04/12 03:47:44;;;;;;;9.57;5.43;;;7.00;97.40;;;;;;5056008;28;20184;-80
2022/04/12 03:50:10;;;;;;;10.30;4.83;;;7.00;97.30;;;;;;5038074;28;20688;-80
2022/04/12 03:52:35;;;;;;;11.37;5.23;;;7.10;97.20;;;;;;5053083;28;20650;-77
2022/04/12 03:55:01;;;;;;;12.33;5.07;;;7.10;96.70;;;;;;5036716;28;20183;-81
2022/04/12 03:57:26;;;;;;;8.93;5.27;;;7.20;96.40;;;;;;5056121;28;20655;-81
2022/04/12 03:59:52;;;;;;;12.77;5.10;;;7.20;97.10;;;;;;5055983;28;20310;-81
2022/04/12 04:02:17;;;;;;;10.47;5.27;;;7.20;96.80;;;;;;5037060;28;20223;-81
2022/04/12 04:04:43;;;;;;;9.17;5.10;;;7.20;96.80;;;;;;5055451;28;20172;-79
2022/04/12 04:07:08;;;;;;;10.20;4.73;;;7.20;97.10;;;;;;5055629;28;20176;-80
2022/04/12 04:09:34;;;;;;;7.93;4.67;;;7.20;96.60;;;;;;5037784;28;20287;-81
2022/04/12 04:12:03;;;;;;;13.70;5.33;;;7.10;96.90;;;;;;5054757;28;20189;-80
2022/04/12 04:14:31;;;;;;;10.67;5.40;;;7.30;96.30;;;;;;5055241;28;20637;-81
2022/04/12 04:16:58;;;;;;;13.30;5.83;;;7.30;96.50;;;;;;5037605;28;20180;-79
2022/04/12 04:19:23;;;;;;;13.00;5.47;;;7.30;96.10;;;;;;5054537;28;20196;-81
2022/04/12 04:21:49;;;;;;;12.83;5.33;;;7.30;96.40;;;;;;5054849;28;20209;-80
2022/04/12 04:24:14;;;;;;;9.30;5.10;;;7.20;96.20;;;;;;5052325;28;20731;-80
2022/04/12 04:26:40;;;;;;;10.83;6.23;;;7.30;96.40;;;;;;5037336;28;20181;-81
2022/04/12 04:29:06;;;;;;;9.53;5.00;;;7.20;96.90;;;;;;5055328;28;20196;-80
2022/04/12 04:31:32;;;;;;;10.33;5.07;;;7.10;96.90;;;;;;5035109;28;20198;-80
2022/04/12 04:33:58;;;;;;;11.70;5.57;;;7.20;96.80;;;;;;5053956;28;20630;-80
2022/04/12 04:36:23;;;;;;;11.40;5.30;;;7.10;97.50;;;;;;5037209;28;20267;-80
2022/04/12 04:38:49;;;;;;;12.53;5.40;;;7.10;97.10;;;;;;5036980;28;20185;-81
2022/04/12 04:41:14;;;;;;;10.07;5.33;;;7.10;97.40;;;;;;5036452;28;20223;-81
2022/04/12 04:43:40;;;;;;;12.07;5.00;;;7.00;97.60;;;;;;5036978;28;20183;-81
2022/04/12 04:46:06;;;;;;;11.60;5.30;;;7.10;97.20;;;;;;5054908;28;20170;-80
2022/04/12 04:48:31;;;;;;;11.00;5.20;;;7.00;98.00;;;;;;5054859;28;20173;-80
2022/04/12 04:50:57;;;;;;;10.57;5.20;;;7.00;98.00;;;;;;5036945;28;20189;-79
2022/04/12 04:53:22;;;;;;;14.03;5.77;;;7.00;97.90;;;;;;5052153;28;20639;-81
2022/04/12 04:55:48;;;;;;;13.60;5.20;;;7.00;97.60;;;;;;5055588;28;20181;-81
2022/04/12 04:58:13;;;;;;;13.67;5.33;;;7.00;97.90;;;;;;5057357;28;20173;-79
2022/04/12 05:00:39;;;;;;;11.67;5.60;;;7.10;97.60;;;;;;5058155;28;20226;-81
2022/04/12 05:03:05;;;;;;;9.50;5.43;;;7.10;97.40;;;;;;5040041;28;20315;-81
2022/04/12 05:05:31;;;;;;;8.90;5.27;;;7.10;97.30;;;;;;5040728;28;20314;-80
2022/04/12 05:07:57;;;;;;;11.33;5.20;;;7.10;97.40;;;;;;5058628;28;20624;-79
2022/04/12 05:10:24;;;;;;;9.17;4.97;;;7.10;97.80;;;;;;5040006;28;20292;-81
2022/04/12 05:12:50;;;;;;;9.23;5.33;;;7.10;98.00;;;;;;5038454;28;20203;-79
2022/04/12 05:15:16;;;;;;;12.03;5.53;;;7.20;98.10;;;;;;5040078;28;20169;-80
2022/04/12 05:17:48;;;;;;;10.10;5.40;;;7.20;97.50;;;;;;5058673;28;20171;-81
2022/04/12 05:20:13;;;;;;;9.10;5.27;;;7.20;98.10;;;;;;5058239;28;20260;-81
2022/04/12 05:22:39;;;;;;;12.97;5.73;;;7.20;97.70;;;;;;5057254;28;20235;-80
2022/04/12 05:25:05;;;;;;;9.90;5.07;;;7.30;97.50;;;;;;5036754;28;20216;-81
2022/04/12 05:27:34;;;;;;;14.53;5.77;;;7.30;97.60;;;;;;5039629;28;20275;-80
2022/04/12 05:30:01;;;;;;;11.10;5.90;;;7.30;97.50;;;;;;5057461;28;20210;-80
2022/04/12 05:32:27;;;;;;;14.50;5.20;;;7.40;97.70;;;;;;5057068;28;20188;-81
2022/04/12 05:34:52;;;;;;;11.17;5.40;;;7.40;97.30;;;;;;5057516;28;20533;-80
2022/04/12 05:37:18;;;;;;;11.40;5.60;;;7.40;97.30;;;;;;5057632;28;20171;-80
2022/04/12 05:39:44;;;;;;;14.80;5.87;;;7.50;97.60;;;;;;5040328;28;20647;-80
2022/04/12 05:42:10;;;;;;;11.40;5.30;;;7.50;97.70;;;;;;5039859;28;20238;-81
2022/04/12 05:44:35;;;;;;;9.00;5.60;;;7.50;97.70;;;;;;5058139;28;20168;-80
2022/04/12 05:47:02;;;;;;;10.83;5.40;;;7.50;97.70;;;;;;5058544;28;20259;-81
2022/04/12 05:49:28;;;;;;;11.17;5.73;;;7.50;97.90;;;;;;5039836;28;20228;-80
2022/04/12 05:51:54;;;;;;;12.67;5.73;;;7.70;97.00;;;;;;5038879;28;20196;-80
2022/04/12 05:54:20;;;;;;;11.07;5.73;;;7.80;97.20;;;;;;5054921;28;20170;-81
2022/04/12 05:56:46;;;;;;;9.63;5.67;;;8.00;97.50;;;;;;5039438;28;20172;-80
2022/04/12 05:59:11;;;;;;;14.53;5.80;;;8.00;97.30;;;;;;5039604;28;20553;-80
2022/04/12 06:01:38;;;;;;;9.10;5.07;;;8.20;96.30;;;;;;5056557;28;20214;-81
2022/04/12 06:04:07;;;;;;;8.67;4.97;;;8.50;95.80;;;;;;5039513;28;20543;-81
2022/04/12 06:06:33;;;;;;;9.73;5.17;;;8.80;96.20;;;;;;5057589;28;20724;-81
2022/04/12 06:09:00;;;;;;;13.17;6.03;;;8.90;95.30;;;;;;5056768;28;20219;-81
2022/04/12 06:11:26;;;;;;;11.30;6.07;;;9.10;95.80;;;;;;5056597;28;20567;-81
2022/04/12 06:13:52;;;;;;;8.20;5.17;;;9.20;94.60;;;;;;5039328;28;20182;-81
2022/04/12 06:16:17;;;;;;;9.30;5.40;;;9.60;94.20;;;;;;5056420;28;20169;-79
2022/04/12 06:18:43;;;;;;;9.70;5.60;;;9.80;94.10;;;;;;5056943;28;20172;-81
2022/04/12 06:21:08;;;;;;;9.83;5.77;;;9.90;93.10;;;;;;5056126;28;20194;-81
2022/04/12 06:23:34;;;;;;;9.10;4.97;;;10.20;93.10;;;;;;5054388;28;20170;-81
2022/04/12 06:26:00;;;;;;;10.47;5.40;;;10.20;93.20;;;;;;5057153;28;20173;-81
2022/04/12 06:28:25;;;;;;;12.33;5.37;;;10.20;93.20;;;;;;5057350;28;20180;-81
2022/04/12 06:30:52;;;;;;;10.33;5.30;;;10.20;93.00;;;;;;5057199;28;20206;-81
2022/04/12 06:33:18;;;;;;;13.37;4.80;;;10.50;92.90;;;;;;5055044;28;20223;-81
2022/04/12 06:35:44;;;;;;;7.87;5.20;;;10.50;91.50;;;;;;5039296;28;20174;-79
2022/04/12 06:38:10;;;;;;;9.60;5.53;;;10.50;91.40;;;;;;5056258;28;20196;-81
2022/04/12 06:40:35;;;;;;;9.57;5.10;;;10.30;91.90;;;;;;5038793;28;20640;-82
2022/04/12 06:43:02;;;;;;;10.07;5.30;;;10.50;92.20;;;;;;5054779;28;20183;-81
2022/04/12 06:45:28;;;;;;;9.33;5.43;;;10.90;92.90;;;;;;5056267;28;20185;-81
2022/04/12 06:47:58;;;;;;;7.90;5.37;;;10.80;91.60;;;;;;5055910;28;20169;-82
2022/04/12 06:50:25;;;;;;;9.87;5.17;;;11.00;91.30;;;;;;5037777;28;20212;-81
2022/04/12 06:52:51;;;;;;;10.43;5.13;;;11.00;90.80;;;;;;5052045;28;20580;-81
2022/04/12 06:55:17;;;;;;;12.43;6.00;;;11.30;91.10;;;;;;5055422;28;20229;-80
2022/04/12 06:57:43;;;;;;;8.53;4.93;;;11.40;91.20;;;;;;5055068;28;20200;-81
2022/04/12 07:00:10;;;;;;;10.47;5.27;;;11.50;90.00;;;;;;5055712;28;20479;-80
2022/04/12 07:02:36;;;;;;;9.43;5.27;;;11.50;89.30;;;;;;5037666;22;20298;-86
2022/04/12 07:05:03;;;;;;;16.67;5.43;;;11.50;90.10;;;;;;5000951;28;20167;-86
2022/04/12 07:07:29;;;;;;;10.57;5.63;;;11.90;90.30;;;;;;5000736;28;20185;-86
2022/04/12 07:09:55;;;;;;;10.30;5.97;;;11.80;88.20;;;;;;5000970;28;20214;-86
2022/04/12 07:12:21;;;;;;;10.33;5.37;;;12.10;88.10;;;;;;5002238;28;20234;-86
2022/04/12 07:14:47;;;;;;;9.50;5.47;;;12.50;87.90;;;;;;5000890;28;20202;-86
2022/04/12 07:17:12;;;;;;;14.23;5.30;;;12.80;88.50;;;;;;4998368;28;20590;-87
2022/04/12 07:19:38;;;;;;;9.43;5.33;;;13.00;86.00;;;;;;4998318;28;20561;-86
2022/04/12 07:22:05;;;;;;;13.03;5.80;;;12.90;87.90;;;;;;5000002;28;20181;-86
2022/04/12 07:24:31;;;;;;;12.13;5.47;;;12.70;87.10;;;;;;5000912;28;20185;-86
2022/04/12 07:26:57;;;;;;;10.67;4.97;;;12.70;87.70;;;;;;5000896;28;20193;-87
2022/04/12 07:29:22;;;;;;;11.73;5.13;;;13.00;86.20;;;;;;5002203;28;20206;-86
2022/04/12 07:31:48;;;;;;;10.40;5.90;;;13.00;86.30;;;;;;5001110;28;20210;-86
2022/04/12 07:34:14;;;;;;;9.17;4.93;;;12.80;87.70;;;;;;4998322;28;20175;-86
2022/04/12 07:36:43;;;;;;;9.20;5.50;;;12.70;86.10;;;;;;4998031;28;20170;-86
2022/04/12 07:39:09;;;;;;;12.97;5.53;;;12.70;87.20;;;;;;4996766;28;20166;-84
2022/04/12 07:41:35;;;;;;;8.23;5.20;;;12.70;86.60;;;;;;4997676;28;20194;-87
2022/04/12 07:44:01;;;;;;;10.97;5.60;;;13.30;87.70;;;;;;4997216;28;20662;-86
2022/04/12 07:46:27;;;;;;;9.67;5.60;;;13.60;86.00;;;;;;4997617;28;20661;-85
2022/04/12 07:48:53;;;;;;;11.97;5.40;;;14.00;84.80;;;;;;4995705;28;20169;-84
2022/04/12 07:51:18;;;;;;;10.67;4.97;;;14.10;84.20;;;;;;4997187;28;20244;-84
2022/04/12 07:53:44;;;;;;;8.47;5.53;;;14.10;83.70;;;;;;4996392;28;20548;-85
2022/04/12 07:56:10;;;;;;;10.43;5.53;;;14.60;83.80;;;;;;4998539;28;20175;-85
2022/04/12 07:58:36;;;;;;;7.87;4.93;;;14.70;81.70;;;;;;5002253;28;20631;-85
2022/04/12 08:01:02;;;;;;;10.33;5.30;;;14.80;82.10;;;;;;5002849;28;20190;-83
2022/04/12 08:03:28;;;;;;;9.07;5.77;;;14.60;83.10;;;;;;5000837;28;20182;-85
2022/04/12 08:05:54;;;;;;;8.27;5.43;;;14.70;81.50;;;;;;5001404;28;20185;-85
2022/04/12 08:08:20;;;;;;;9.00;5.20;;;14.70;81.10;;;;;;5002807;28;20194;-85
2022/04/12 08:10:46;;;;;;;9.63;5.53;;;14.70;82.10;;;;;;5001409;28;20210;-84
2022/04/12 08:13:11;;;;;;;14.40;6.40;;;15.00;80.60;;;;;;5001954;28;20185;-85
2022/04/12 08:15:37;;;;;;;10.23;5.43;;;15.10;81.80;;;;;;5001371;28;20234;-86
2022/04/12 08:18:04;;;;;;;11.17;5.67;;;15.40;79.50;;;;;;5002686;28;20185;-85
2022/04/12 08:20:30;;;;;;;10.77;5.90;;;15.20;80.80;;;;;;5002933;28;20194;-85
2022/04/12 08:22:56;;;;;;;10.53;5.80;;;15.90;78.90;;;;;;5000322;28;20201;-85
2022/04/12 08:25:22;;;;;;;7.47;5.23;;;15.90;79.80;;;;;;5001264;28;20266;-85
2022/04/12 08:27:49;;;;;;;8.67;5.57;;;16.20;79.10;;;;;;5001364;28;20262;-84
2022/04/12 08:30:14;;;;;;;13.57;5.90;;;16.30;80.00;;;;;;5019765;28;20210;-86
2022/04/12 08:32:40;;;;;;;10.77;6.07;;;16.10;77.70;;;;;;5001410;28;20194;-85
2022/04/12 08:35:07;;;;;;;12.73;5.47;;;16.60;77.20;;;;;;5002989;28;20179;-85
2022/04/12 08:37:33;;;;;;;12.00;5.72;;;16.70;78.20;;;;;;5002513;28;20708;-85
2022/04/12 08:39:59;;;;;;;11.60;6.03;;;17.00;77.50;;;;;;5003245;28;20662;-85
2022/04/12 08:42:25;;;;;;;12.73;5.60;;;17.00;78.20;;;;;;5003189;28;20171;-84
2022/04/12 08:44:51;;;;;;;11.00;5.90;;;17.00;76.90;;;;;;5002797;28;20182;-85
2022/04/12 08:47:18;;;;;;;10.47;5.50;;;16.70;78.20;;;;;;5002653;28;20175;-85
2022/04/12 08:49:45;;;;;;;9.83;6.00;;;16.40;77.80;;;;;;5000985;28;20242;-86
2022/04/12 08:52:12;;;;;;;9.70;5.80;;;16.40;78.80;;;;;;5001980;28;20571;-84
2022/04/12 08:54:42;;;;;;;11.40;5.30;;;16.80;78.20;;;;;;5003959;28;20167;-86
2022/04/12 08:57:09;;;;;;;10.37;6.23;;;17.30;77.70;;;;;;5002453;28;20175;-86
2022/04/12 08:59:35;;;;;;;12.20;5.43;;;17.40;78.40;;;;;;5002927;28;20458;-85
2022/04/12 09:02:01;;;;;;;11.20;5.67;;;17.60;76.30;;;;;;5001255;28;20194;-85
2022/04/12 09:04:28;;;;;;;9.30;5.17;;;17.30;77.40;;;;;;5002864;28;20181;-84
2022/04/12 09:06:56;;;;;;;9.13;5.33;;;17.70;76.30;;;;;;5000338;28;20182;-84
2022/04/12 09:09:32;;;;;;;8.00;4.97;;;17.70;75.10;;;;;;5001398;28;20600;-84
2022/04/12 09:12:03;;;;;;;9.97;5.63;;;18.20;74.40;;;;;;5003209;28;20166;-86
2022/04/12 09:14:44;;;;;;;10.23;5.70;;;18.40;76.00;;;;;;5002445;28;20174;-85
2022/04/12 09:17:15;;;;;;;9.05;5.03;;;18.00;74.30;;;;;;5002596;28;20188;-85
2022/04/12 09:19:45;;;;;;;8.67;5.13;;;18.40;71.80;;;;;;5003551;28;20198;-84
2022/04/12 09:22:15;;;;;;;10.40;5.85;;;18.80;74.80;;;;;;5002662;28;20179;-84
2022/04/12 09:24:48;;;;;;;10.43;5.80;;;18.70;73.00;;;;;;5001423;28;20183;-86
2022/04/12 09:27:16;;;;;;;10.50;5.68;;;18.70;72.80;;;;;;5003299;28;20182;-85
2022/04/12 09:29:50;;;;;;;9.98;5.95;;;19.20;73.70;;;;;;5002106;28;20217;-86
2022/04/12 09:32:19;;;;;;;11.27;5.20;;;19.70;73.80;;;;;;5001622;28;20170;-84
2022/04/12 09:34:45;;;;;;;10.50;5.85;;;19.00;71.70;;;;;;5002688;28;20193;-85
2022/04/12 09:37:20;;;;;;;13.43;6.22;;;19.00;73.60;;;;;;5001766;28;20261;-85
2022/04/12 09:40:03;;;;;;;19.75;6.13;;;19.00;72.30;;;;;;5001549;28;20206;-86
2022/04/12 09:42:51;;;;;;;11.68;6.13;;;19.20;73.50;;;;;;5001268;28;20209;-85
2022/04/12 09:45:18;;;;;;;11.73;6.03;;;19.30;72.30;;;;;;5001994;28;20643;-86
2022/04/12 09:47:45;;;;;;;10.63;5.85;;;19.30;72.90;;;;;;5001157;28;20551;-86
2022/04/12 09:50:11;;;;;;;10.63;5.85;;;19.40;71.40;;;;;;5001944;28;20273;-85
2022/04/12 09:52:37;;;;;;;11.50;5.90;;;19.60;70.70;;;;;;5002489;28;20171;-85
2022/04/12 09:55:05;;;;;;;9.55;5.53;;;19.50;70.00;;;;;;5003096;28;20171;-85
2022/04/12 09:57:32;;;;;;;11.73;6.43;;;19.60;72.50;;;;;;5002647;28;20187;-84
2022/04/12 09:59:58;;;;;;;11.57;5.55;;;19.80;70.20;;;;;;4987858;28;20201;-86
2022/04/12 10:02:25;;;;;;;12.80;6.35;;;19.30;70.20;;;;;;5002549;28;20257;-85
2022/04/12 10:04:55;;;;;;;11.27;6.22;;;19.60;71.60;;;;;;5004022;28;20643;-84
2022/04/12 10:07:23;;;;;;;12.52;5.90;;;19.70;70.40;;;;;;5001860;28;20174;-85
2022/04/12 10:09:51;;;;;;;12.70;6.32;;;19.60;70.00;;;;;;5005303;28;20225;-86
2022/04/12 10:12:18;;;;;;;11.48;6.05;;;20.00;70.20;;;;;;5007370;28;20170;-85
2022/04/12 10:14:45;;;;;;;14.55;6.53;;;20.30;71.10;;;;;;5025487;28;20246;-86
2022/04/12 10:17:13;;;;;;;13.35;6.05;;;20.00;71.00;;;;;;5008455;28;20167;-84
2022/04/12 10:19:40;;;;;;;14.18;6.57;;;20.20;71.40;;;;;;5006162;28;20486;-86
2022/04/12 10:22:07;;;;;;;12.82;6.75;;;20.40;71.20;;;;;;5004837;28;20237;-86
2022/04/12 10:24:34;;;;;;;11.27;6.55;;;19.80;70.20;;;;;;5002880;28;20198;-87
2022/04/12 10:27:00;;;;;;;12.00;6.57;;;20.20;70.50;;;;;;5001847;28;20179;-86
2022/04/12 10:29:26;;;;;;;11.85;6.20;;;20.30;71.50;;;;;;5001111;28;20214;-87
2022/04/12 10:31:56;;;;;;;18.15;6.38;;;20.10;69.60;;;;;;4996780;28;20549;-84
2022/04/12 10:34:22;;;;;;;12.40;5.78;;;20.20;70.00;;;;;;4996909;28;20182;-84
2022/04/12 10:37:09;;;;;;;12.38;6.47;;;20.60;69.40;;;;;;4998084;28;20163;-88
2022/04/12 10:39:49;;;;;;;12.82;6.43;;;21.30;69.40;;;;;;4998427;28;20252;-83
2022/04/12 10:42:34;;;;;;;12.32;5.93;;;21.30;67.10;;;;;;4996639;28;20635;-85
2022/04/12 10:45:02;;;;;;;11.73;6.88;;;21.50;66.40;;;;;;4999130;28;20175;-85
2022/04/12 10:47:35;;;;;;;9.65;6.07;;;20.80;69.20;;;;;;4996451;28;20283;-84
2022/04/12 10:50:07;;;;;;;12.80;6.63;;;20.70;67.70;;;;;;4996184;28;20214;-86
2022/04/12 10:52:42;;;;;;;12.20;5.97;;;20.60;68.90;;;;;;4996614;28;20182;-81
2022/04/12 10:55:10;;;;;;;10.88;5.68;;;21.10;70.00;;;;;;4997565;28;20170;-85
2022/04/12 10:57:36;;;;;;;9.90;5.90;;;21.80;66.90;;;;;;4999316;28;20635;-85
2022/04/12 11:00:16;;;;;;;11.02;5.90;;;21.50;67.30;;;;;;4998451;28;20195;-85
2022/04/12 11:02:43;;;;;;;13.85;6.28;;;21.40;68.70;;;;;;4996737;28;20189;-85
2022/04/12 11:05:44;;;;;;;13.60;5.90;;;21.40;68.20;;;;;;4999262;28;20185;-84
2022/04/12 11:08:13;;;;;;;6.95;4.60;;;22.00;67.50;;;;;;4993765;28;20193;-86
2022/04/12 11:10:40;;;;;;;10.63;4.90;;;21.60;66.50;;;;;;5000380;28;20215;-83
2022/04/12 11:13:08;;;;;;;7.13;4.07;;;21.80;65.30;;;;;;5000636;28;20182;-86
2022/04/12 11:15:35;;;;;;;9.63;4.70;;;21.90;66.20;;;;;;5001237;28;20171;-86
2022/04/12 11:18:18;;;;;;;8.23;4.43;;;21.60;65.30;;;;;;4999346;28;20792;-86
2022/04/12 11:20:58;;;;;;;5.30;3.33;;;22.10;63.90;;;;;;4996292;28;20206;-85
2022/04/12 11:23:46;;;;;;;4.22;3.05;;;22.20;63.80;;;;;;4995128;28;20422;-87
2022/04/12 11:26:35;;;;;;;4.90;2.75;;;22.10;63.80;;;;;;4995053;28;20616;-85
2022/04/12 11:29:01;;;;;;;4.32;3.00;;;21.80;62.30;;;;;;4996795;28;20190;-85
2022/04/12 11:31:27;;;;;;;4.68;2.88;;;22.40;64.10;;;;;;5016888;28;20170;-85
2022/04/12 11:33:53;;;;;;;6.38;3.20;;;22.90;63.80;;;;;;4998436;28;20170;-84
2022/04/12 11:36:19;;;;;;;6.72;2.90;;;22.10;63.00;;;;;;5003115;28;20198;-85
2022/04/12 11:38:46;;;;;;;5.50;2.88;;;22.60;63.60;;;;;;5001252;28;20171;-85
2022/04/12 11:41:12;;;;;;;4.05;2.97;;;22.40;64.50;;;;;;4998792;28;20198;-86
2022/04/12 11:43:38;;;;;;;5.80;2.60;;;22.20;62.30;;;;;;4999049;28;20265;-84
2022/04/12 11:46:04;;;;;;;3.90;2.85;;;22.50;63.40;;;;;;4998872;28;20175;-84
2022/04/12 11:48:31;;;;;;;5.07;2.60;;;22.30;63.10;;;;;;4998460;28;20175;-85
2022/04/12 11:51:01;;;;;;;3.22;2.38;;;22.70;64.50;;;;;;4998192;28;20210;-86
2022/04/12 11:53:27;;;;;;;4.72;2.60;;;22.60;62.90;;;;;;4999277;28;20178;-88
2022/04/12 11:56:03;;;;;;;3.70;2.25;;;22.70;62.90;;;;;;4999370;28;20171;-86
2022/04/12 11:58:30;;;;;;;4.63;1.70;;;23.60;62.70;;;;;;4998944;28;20163;-84
2022/04/12 12:00:56;;;;;;;1.80;1.60;;;23.80;58.50;;;;;;4999491;28;20195;-84
2022/04/12 12:03:23;;;;;;;3.28;1.63;;;25.30;57.60;;;;;;4998732;28;20175;-83
2022/04/12 12:05:49;;;;;;;2.70;1.70;;;26.50;57.70;;;;;;4999443;28;20647;-84
2022/04/12 12:08:22;;;;;;;4.03;2.17;;;25.80;58.30;;;;;;4998675;28;20185;-84
2022/04/12 12:10:51;;;;;;;2.10;1.90;;;24.80;58.90;;;;;;4978789;28;20214;-83
2022/04/12 12:13:17;;;;;;;6.50;1.75;;;23.10;59.60;;;;;;4978362;28;20178;-84
2022/04/12 12:15:45;;;;;;;4.70;1.50;;;22.90;60.60;;;;;;4978367;28;20535;-84
2022/04/12 12:18:13;;;;;;;5.97;2.10;;;22.90;61.80;;;;;;4978810;28;20176;-84
2022/04/12 12:20:39;;;;;;;3.00;1.70;;;22.90;61.10;;;;;;4978716;28;20200;-81
2022/04/12 12:23:07;;;;;;;2.95;1.60;;;23.00;60.50;;;;;;4979334;28;20179;-82
2022/04/12 12:25:53;;;;;;;2.25;1.70;;;23.20;61.70;;;;;;4979528;28;20179;-82
2022/04/12 12:28:21;;;;;;;4.65;1.83;;;23.70;60.60;;;;;;4978660;28;20175;-83
2022/04/12 12:30:49;;;;;;;6.05;1.60;;;22.40;60.70;;;;;;4977928;28;20627;-82
2022/04/12 12:33:15;;;;;;;4.32;1.88;;;22.40;60.40;;;;;;4994569;28;20624;-82
2022/04/12 12:35:48;;;;;;;3.15;1.80;;;22.40;60.20;;;;;;4978437;28;20222;-83
2022/04/12 12:38:16;;;;;;;6.28;1.58;;;22.20;60.60;;;;;;4978818;28;20178;-83
2022/04/12 12:40:43;;;;;;;3.10;1.67;;;22.30;61.60;;;;;;4989906;28;20576;-83
2022/04/12 12:43:11;;;;;;;3.53;1.80;;;22.30;61.30;;;;;;4997522;28;20261;-84
2022/04/12 12:45:43;;;;;;;2.83;1.77;;;22.40;60.50;;;;;;4998823;28;20166;-84
2022/04/12 12:48:11;;;;;;;3.10;1.77;;;22.30;60.20;;;;;;4998152;28;20182;-85
2022/04/12 12:50:38;;;;;;;2.95;1.90;;;22.70;63.00;;;;;;4997555;28;20717;-86